Airfield :
LOGIN :

Register | Disclaimer

   EN    FR    IT 

 










Legend :    VFR   Marginal VFR   IFR   Intensive IFR   Very Intensive IFR
Visi :
Ceiling :
>= 8 km
>= 3000ft
5 to 8 km
1000 to 3000 ft
1500m to 5 km
500 to 1000 ft
800 to 1500m
200 to 500 ft
< 800m
< 200 ft
Symbols :   Thunderstorms  Fog  Heavy snow  Heavy precipitations  Wind > 20 kt
SIGMETs :     Misc.  Thunderstorms  Icing  Turbulence  Mountain Waves  Volcanic Ashes






- Airport Elevation : 26 ft
- IATA code : BIA


LFKB - Bastia

CURRENT METAR :
  • 280730Z AUTO 11011KT 9999 FEW016 BKN026 BKN032 14/12 Q1013 TEMPO 4000 RA BKN025 FEW035CB BKN060

EXPIRED METARs :
  • 280700Z AUTO 16004KT 110V220 9999 -RA SCT015/// BKN022/// BKN039/// ///TCU 14/13 Q1013 TEMPO 2000 TSRA BKN010 BKN020 SCT035CB
  • 280630Z AUTO 14004KT 110V170 9999 -RA FEW016/// BKN022/// BKN031/// ///CB 14/13 Q1013 TEMPO 2000 TSRA BKN010 BKN020 SCT035CB
  • 280600Z AUTO 12008KT 9999 SCT013/// SCT033/// BKN040/// ///CB 14/12 Q1014 TEMPO 2000 TSRA BKN010 BKN020 SCT035CB
  • 280530Z AUTO 15006KT 120V180 8000 -RA SCT011/// BKN016/// BKN027/// ///CB 14/13 Q1014 TEMPO 2000 TSRA BKN010 BKN020 SCT035CB
  • 280500Z AUTO 16007KT 5000 RA BR BKN012/// BKN019/// BKN030/// ///TCU 13/13 Q1014 TEMPO 2000 TSRA BKN010 BKN020 SCT035CB

TAF TAF LFKB
Valid from the 28 at 03:00 until the 29 at 03:00 UTC


280200Z 2803/2903 16010KT 9999 SCT015 BKN025 BKN060 TX16/2812Z TN10/2903Z
TEMPO 2803/2809 2000 TSRA BKN010 BKN020 SCT035CB BKN040
TEMPO 2809/2821 4000 RA BKN025 FEW035CB BKN060
BECMG 2821/2823 24006KT
BECMG 2901/2903 33010KT
ATIS : +33 4 95 59 19 40



MET'MAP, your aeronautical weather chart ! - Copyright ORBIFLY December 2007 - Disclaimer

ORBIFLY MET'MAP TEAM :

Programming & Development : Alexandra Zaïnal
Concept & original design : Baudouin d'Aumeries
Assistance for programming : Marc-Olivier Méhu
Technical & hardware support : Manuel Goepfert

Contact : metmap@orbifly.com




SOURCES & CREDITS :

   NOAA